createdAt,value
2023-04-08T00:00:57.760Z,94.45
2023-04-08T00:03:26.245Z,94.55
2023-04-08T00:05:53.305Z,94.65
2023-04-08T00:08:21.535Z,94.61
2023-04-08T00:10:48.624Z,94.69
2023-04-08T00:13:21.042Z,94.85
2023-04-08T00:15:47.964Z,95.00
2023-04-08T00:18:16.220Z,95.04
2023-04-08T00:20:45.129Z,95.13
2023-04-08T00:23:12.034Z,94.94
2023-04-08T00:25:39.302Z,94.67
2023-04-08T00:28:06.572Z,94.73
2023-04-08T00:30:33.616Z,95.02
2023-04-08T00:33:01.384Z,95.44
2023-04-08T00:35:28.456Z,95.70
2023-04-08T00:37:55.449Z,95.63
2023-04-08T00:40:23.331Z,95.55
2023-04-08T00:42:50.934Z,95.65
2023-04-08T00:45:17.950Z,95.56
2023-04-08T00:47:46.157Z,95.40
2023-04-08T00:50:13.283Z,95.27
2023-04-08T00:52:40.282Z,94.91
2023-04-08T00:55:09.954Z,94.74
2023-04-08T00:57:37.012Z,94.66
2023-04-08T01:00:09.115Z,94.77
2023-04-08T01:03:10.922Z,94.94
2023-04-08T01:06:02.774Z,95.19
2023-04-08T01:08:31.089Z,95.33
2023-04-08T01:11:01.643Z,95.45
2023-04-08T01:13:30.899Z,95.47
2023-04-08T01:16:03.185Z,95.60
2023-04-08T01:18:30.547Z,95.46
2023-04-08T01:20:57.258Z,95.49
2023-04-08T01:24:01.660Z,95.59
2023-04-08T01:26:28.963Z,95.55
2023-04-08T01:28:58.848Z,95.51
2023-04-08T01:31:25.843Z,95.54
2023-04-08T01:33:52.724Z,95.30
2023-04-08T01:36:23.091Z,94.89
2023-04-08T01:38:50.765Z,95.17
2023-04-08T01:41:18.187Z,95.40
2023-04-08T01:43:50.139Z,95.66
2023-04-08T01:46:17.149Z,95.89
2023-04-08T01:48:43.916Z,96.15
2023-04-08T01:51:11.600Z,96.52
2023-04-08T01:53:38.531Z,96.60
2023-04-08T01:56:08.604Z,96.42
2023-04-08T01:58:46.087Z,96.03
2023-04-08T02:01:18.307Z,95.97
2023-04-08T02:03:46.578Z,96.18
2023-04-08T02:06:13.873Z,96.40
2023-04-08T02:08:41.006Z,96.81
2023-04-08T02:11:09.777Z,97.10
2023-04-08T02:13:36.950Z,96.95
2023-04-08T02:16:10.631Z,97.02
2023-04-08T02:18:37.613Z,97.32
2023-04-08T02:21:14.086Z,97.23
2023-04-08T02:23:41.861Z,97.05
2023-04-08T02:26:16.274Z,96.94
2023-04-08T02:28:43.055Z,96.76
2023-04-08T02:31:14.217Z,96.42
2023-04-08T02:33:45.456Z,96.08
2023-04-08T02:36:12.643Z,95.97
2023-04-08T02:38:41.111Z,95.93
2023-04-08T02:41:08.828Z,96.05
2023-04-08T02:43:36.301Z,96.19
2023-04-08T02:46:10.181Z,96.45
2023-04-08T02:48:38.382Z,96.47
2023-04-08T02:51:05.180Z,96.55
2023-04-08T02:53:33.487Z,96.67
2023-04-08T02:56:00.844Z,96.71
2023-04-08T02:58:27.687Z,96.65
2023-04-08T03:00:55.122Z,96.61
2023-04-08T03:03:28.027Z,96.55
2023-04-08T03:05:55.834Z,96.48
2023-04-08T03:08:22.798Z,96.33
2023-04-08T03:10:49.932Z,96.22
2023-04-08T03:13:17.394Z,96.25
2023-04-08T03:15:44.233Z,95.92
2023-04-08T03:18:11.384Z,95.53
2023-04-08T03:20:38.275Z,95.48
2023-04-08T03:23:09.037Z,95.69
2023-04-08T03:25:36.313Z,95.95
2023-04-08T03:28:03.114Z,96.33
2023-04-08T03:30:31.156Z,96.42
2023-04-08T03:32:59.804Z,96.09
2023-04-08T03:35:26.697Z,95.72
2023-04-08T03:37:55.151Z,95.40
2023-04-08T03:40:21.923Z,95.57
2023-04-08T03:42:51.321Z,95.85
2023-04-08T03:45:18.607Z,96.55
2023-04-08T03:47:46.865Z,97.04
2023-04-08T03:50:13.807Z,97.09
2023-04-08T03:52:46.401Z,96.97
2023-04-08T03:55:13.230Z,96.98
2023-04-08T03:57:40.665Z,97.19
2023-04-08T04:00:08.782Z,97.61
2023-04-08T04:02:43.200Z,97.75
2023-04-08T04:05:10.199Z,97.66
2023-04-08T04:07:38.480Z,97.53
2023-04-08T04:10:06.498Z,97.49
2023-04-08T04:12:33.449Z,97.31
2023-04-08T04:15:01.175Z,97.14
2023-04-08T04:17:29.157Z,97.42
2023-04-08T04:19:57.092Z,97.42
2023-04-08T04:22:28.576Z,96.98
2023-04-08T04:24:55.894Z,96.85
2023-04-08T04:29:36.304Z,97.09
2023-04-08T04:32:04.350Z,96.71
2023-04-08T04:34:31.632Z,96.23
2023-04-08T04:36:58.887Z,96.04
2023-04-08T04:39:25.956Z,96.00
2023-04-08T04:41:52.707Z,96.02
2023-04-08T04:44:19.525Z,96.10
2023-04-08T04:46:46.351Z,96.14
2023-04-08T04:49:13.662Z,96.13
2023-04-08T04:51:40.417Z,95.94
2023-04-08T04:54:09.190Z,95.54
2023-04-08T04:56:36.177Z,95.73
2023-04-08T04:59:05.552Z,95.88
2023-04-08T05:01:33.060Z,96.02
2023-04-08T05:04:01.764Z,95.83
2023-04-08T05:06:30.338Z,95.46
2023-04-08T05:08:58.004Z,95.66
2023-04-08T05:11:27.041Z,95.89
2023-04-08T05:13:55.912Z,96.09
2023-04-08T05:16:30.680Z,95.16
2023-04-08T05:18:57.521Z,94.05
2023-04-08T05:21:27.936Z,92.71
2023-04-08T05:24:00.922Z,91.43
2023-04-08T05:26:31.142Z,90.52
2023-04-08T05:29:02.231Z,88.40
2023-04-08T05:31:29.129Z,85.17
2023-04-08T05:33:59.500Z,82.52
2023-04-08T05:36:26.736Z,79.23
2023-04-08T05:38:53.487Z,77.05
2023-04-08T05:41:21.682Z,75.62
2023-04-08T05:43:48.527Z,74.15
2023-04-08T05:46:15.530Z,72.97
2023-04-08T05:48:42.348Z,72.15
2023-04-08T05:51:21.054Z,69.97
2023-04-08T05:53:48.870Z,66.69
2023-04-08T05:56:15.817Z,65.11
2023-04-08T05:58:46.146Z,61.01
2023-04-08T06:01:13.100Z,58.98
2023-04-08T06:03:40.719Z,56.44
2023-04-08T06:06:11.436Z,55.95
2023-04-08T06:08:39.483Z,55.40
2023-04-08T06:11:07.137Z,55.03
2023-04-08T06:13:36.745Z,54.40
2023-04-08T06:16:14.049Z,54.06
2023-04-08T06:18:41.061Z,53.38
2023-04-08T06:21:09.757Z,53.54
2023-04-08T06:23:36.921Z,53.48
2023-04-08T06:26:04.643Z,53.27
2023-04-08T06:28:31.840Z,52.50
2023-04-08T06:31:00.571Z,52.50
2023-04-08T06:33:30.106Z,52.60
2023-04-08T06:36:05.607Z,52.67
2023-04-08T06:38:32.552Z,52.59
2023-04-08T06:41:04.078Z,51.63
2023-04-08T06:43:31.796Z,50.71
2023-04-08T06:45:58.994Z,49.62
2023-04-08T06:48:31.323Z,47.77
2023-04-08T06:51:00.050Z,46.07
2023-04-08T06:53:35.242Z,45.03
2023-04-08T06:56:30.901Z,43.37
2023-04-08T06:58:57.809Z,43.37
2023-04-08T07:01:25.257Z,42.79
2023-04-08T07:07:06.902Z,43.33
2023-04-08T07:09:36.348Z,41.54
2023-04-08T07:12:04.511Z,41.53
2023-04-08T07:14:31.559Z,39.91
2023-04-08T07:17:08.662Z,39.25
2023-04-08T07:19:41.432Z,38.39
2023-04-08T07:22:09.011Z,37.58
2023-04-08T07:24:36.095Z,36.64
2023-04-08T07:27:03.359Z,34.93
2023-04-08T07:29:31.807Z,34.75
2023-04-08T07:31:59.326Z,34.95
2023-04-08T07:34:26.206Z,34.22
2023-04-08T07:36:53.197Z,34.31
2023-04-08T07:39:20.143Z,33.94
2023-04-08T07:41:47.267Z,34.03
2023-04-08T07:44:16.908Z,33.80
2023-04-08T07:46:46.177Z,33.71
2023-04-08T07:49:13.430Z,33.79
2023-04-08T07:51:40.274Z,33.41
2023-04-08T07:54:11.499Z,33.46
2023-04-08T07:56:43.955Z,35.06
2023-04-08T07:59:11.262Z,34.95
2023-04-08T08:01:38.492Z,34.86
2023-04-08T08:04:06.055Z,35.18
2023-04-08T08:06:34.756Z,35.75
2023-04-08T08:09:01.545Z,35.74
2023-04-08T08:11:29.398Z,36.66
2023-04-08T08:14:07.593Z,37.38
2023-04-08T08:16:36.001Z,38.07
2023-04-08T08:19:05.558Z,38.49
2023-04-08T08:21:36.397Z,39.05
2023-04-08T08:24:04.420Z,39.32
2023-04-08T08:26:31.444Z,39.94
2023-04-08T08:29:01.377Z,40.03
2023-04-08T08:31:29.474Z,40.08
2023-04-08T08:33:56.526Z,40.70
2023-04-08T08:36:28.455Z,41.38
2023-04-08T08:38:56.588Z,42.44
2023-04-08T08:41:23.740Z,43.41
2023-04-08T08:43:50.697Z,43.73
2023-04-08T08:46:18.779Z,43.65
2023-04-08T08:48:46.121Z,42.91
2023-04-08T08:51:13.657Z,43.14
2023-04-08T08:53:44.735Z,43.91
2023-04-08T08:58:46.926Z,45.36
2023-04-08T09:01:37.152Z,46.13
2023-04-08T09:04:11.761Z,46.76
2023-04-08T09:06:40.613Z,46.93
2023-04-08T09:09:10.788Z,46.70
2023-04-08T09:11:39.408Z,46.57
2023-04-08T09:14:18.383Z,46.16
2023-04-08T09:16:45.624Z,46.25
2023-04-08T09:19:16.617Z,44.72
2023-04-08T09:22:22.667Z,44.27
2023-04-08T09:24:53.128Z,42.48
2023-04-08T09:27:49.231Z,41.34
2023-04-08T09:30:17.533Z,41.19
2023-04-08T09:32:55.103Z,40.41
2023-04-08T09:35:22.606Z,40.12
2023-04-08T09:37:50.004Z,40.03
2023-04-08T09:40:18.907Z,39.55
2023-04-08T09:42:51.642Z,39.04
2023-04-08T09:45:18.908Z,38.96
2023-04-08T09:47:56.872Z,39.11
2023-04-08T09:50:29.655Z,38.31
2023-04-08T09:53:08.993Z,38.26
2023-04-08T09:55:37.403Z,37.70
2023-04-08T09:58:11.179Z,35.98
2023-04-08T10:00:43.613Z,35.06
2023-04-08T10:03:28.543Z,34.92
2023-04-08T10:06:01.200Z,35.08
2023-04-08T10:08:30.948Z,35.45
2023-04-08T10:10:58.526Z,35.11
2023-04-08T10:13:34.722Z,35.45
2023-04-08T10:16:22.396Z,34.44
2023-04-08T10:18:52.568Z,34.58
2023-04-08T10:21:39.310Z,34.68
2023-04-08T10:24:08.417Z,35.24
2023-04-08T10:26:37.087Z,35.39
2023-04-08T10:29:20.709Z,35.10
2023-04-08T10:31:51.868Z,35.67
2023-04-08T10:34:26.900Z,35.32
2023-04-08T10:36:55.187Z,34.54
2023-04-08T10:39:26.925Z,34.29
2023-04-08T10:41:54.209Z,34.71
2023-04-08T10:44:26.366Z,34.74
2023-04-08T10:46:53.604Z,34.59
2023-04-08T10:49:21.562Z,34.65
2023-04-08T10:51:54.634Z,34.93
2023-04-08T10:54:22.598Z,34.64
2023-04-08T10:56:51.933Z,34.96
2023-04-08T10:59:30.235Z,34.36
2023-04-08T11:01:57.918Z,33.89
2023-04-08T11:04:25.292Z,34.79
2023-04-08T11:06:53.676Z,33.41
2023-04-08T11:09:20.980Z,33.11
2023-04-08T11:11:48.104Z,33.43
2023-04-08T11:14:16.849Z,33.96
2023-04-08T11:16:44.655Z,34.07
2023-04-08T11:19:12.327Z,34.20
2023-04-08T11:21:42.145Z,33.74
2023-04-08T11:24:11.457Z,34.11
2023-04-08T11:26:41.086Z,34.07
2023-04-08T11:29:14.501Z,33.74
2023-04-08T11:31:42.415Z,34.45
2023-04-08T11:34:11.767Z,34.62
2023-04-08T11:36:42.163Z,34.36
2023-04-08T11:39:09.898Z,34.51
2023-04-08T11:41:39.083Z,34.99
2023-04-08T11:44:06.641Z,35.67
2023-04-08T11:46:35.169Z,35.32
2023-04-08T11:49:03.469Z,35.69
2023-04-08T11:51:54.707Z,36.63
2023-04-08T11:54:31.709Z,37.32
2023-04-08T11:57:01.026Z,37.89
2023-04-08T11:59:29.822Z,38.18
2023-04-08T12:01:58.702Z,38.66
2023-04-08T12:04:25.797Z,38.18
2023-04-08T12:06:53.006Z,37.90
2023-04-08T12:09:20.049Z,40.57
2023-04-08T12:11:47.906Z,41.96
2023-04-08T12:14:15.174Z,42.49
2023-04-08T12:16:43.165Z,41.83
2023-04-08T12:19:11.083Z,43.21
2023-04-08T12:21:37.955Z,44.19
2023-04-08T12:24:04.930Z,44.97
2023-04-08T12:26:36.436Z,46.38
2023-04-08T12:29:03.471Z,46.53
2023-04-08T12:31:31.522Z,47.01
2023-04-08T12:34:00.700Z,47.95
2023-04-08T12:36:27.661Z,48.48
2023-04-08T12:39:00.177Z,49.46
2023-04-08T12:41:26.979Z,50.36
2023-04-08T12:43:53.930Z,51.34
2023-04-08T12:46:21.282Z,52.24
2023-04-08T12:48:48.963Z,52.80
2023-04-08T12:51:24.319Z,53.43
2023-04-08T12:53:51.611Z,53.39
2023-04-08T12:56:18.460Z,53.46
2023-04-08T12:58:45.642Z,53.83
2023-04-08T13:01:12.504Z,54.10
2023-04-08T13:03:42.103Z,54.06
2023-04-08T13:06:10.865Z,54.17
2023-04-08T13:08:37.711Z,54.82
2023-04-08T13:11:08.152Z,55.60
2023-04-08T13:13:36.145Z,56.25
2023-04-08T13:16:03.588Z,56.83
2023-04-08T13:18:37.500Z,57.45
2023-04-08T13:21:07.553Z,57.80
2023-04-08T13:23:34.499Z,58.42
2023-04-08T13:26:06.339Z,58.52
2023-04-08T13:28:55.981Z,59.07
2023-04-08T13:31:26.458Z,59.76
2023-04-08T13:33:58.150Z,60.07
2023-04-08T13:36:28.125Z,60.11
2023-04-08T13:38:56.145Z,60.39
2023-04-08T13:41:24.766Z,60.41
2023-04-08T13:43:53.116Z,60.85
2023-04-08T13:46:21.309Z,61.67
2023-04-08T13:48:50.197Z,62.87
2023-04-08T13:51:17.400Z,64.33
2023-04-08T13:53:45.064Z,65.29
2023-04-08T13:56:12.705Z,65.77
2023-04-08T13:58:40.209Z,66.16
2023-04-08T14:01:08.661Z,67.12
2023-04-08T14:03:36.737Z,67.02
2023-04-08T14:06:04.016Z,66.38
2023-04-08T14:08:30.723Z,66.34
2023-04-08T14:10:58.712Z,66.13
2023-04-08T14:13:26.104Z,65.98
2023-04-08T14:16:02.002Z,66.38
2023-04-08T14:18:30.705Z,66.15
2023-04-08T14:20:57.602Z,66.24
2023-04-08T14:23:27.255Z,66.53
2023-04-08T14:25:57.381Z,66.72
2023-04-08T14:28:28.678Z,66.97
2023-04-08T14:33:39.364Z,67.62
2023-04-08T14:36:09.042Z,67.87
2023-04-08T14:38:38.732Z,67.75
2023-04-08T14:41:07.210Z,67.46
2023-04-08T14:43:39.079Z,67.34
2023-04-08T14:46:05.974Z,67.00
2023-04-08T14:48:33.277Z,67.09
2023-04-08T14:51:00.128Z,67.30
2023-04-08T14:53:49.945Z,67.55
2023-04-08T14:56:17.094Z,67.74
2023-04-08T14:58:46.786Z,67.64
2023-04-08T15:01:13.930Z,67.33
2023-04-08T15:03:41.770Z,67.49
2023-04-08T15:06:10.499Z,67.94
2023-04-08T15:08:37.505Z,68.05
2023-04-08T15:11:05.080Z,68.34
2023-04-08T15:13:35.728Z,68.54
2023-04-08T15:16:05.388Z,68.30
2023-04-08T15:18:33.906Z,68.09
2023-04-08T15:21:25.106Z,67.99
2023-04-08T15:23:56.389Z,67.82
2023-04-08T15:26:23.932Z,67.69
2023-04-08T15:28:52.242Z,67.52
2023-04-08T15:31:21.257Z,67.62
2023-04-08T15:33:48.811Z,67.74
2023-04-08T15:36:19.482Z,67.89
2023-04-08T15:38:47.272Z,68.10
2023-04-08T15:41:20.647Z,68.42
2023-04-08T15:43:48.747Z,68.31
2023-04-08T15:46:21.455Z,67.85
2023-04-08T15:48:49.306Z,67.96
2023-04-08T15:51:17.442Z,67.98
2023-04-08T15:53:44.660Z,68.56
2023-04-08T15:56:15.666Z,68.51
2023-04-08T15:58:43.889Z,69.04
2023-04-08T16:01:11.809Z,69.34
2023-04-08T16:03:40.365Z,69.89
2023-04-08T16:06:07.908Z,70.38
2023-04-08T16:08:35.066Z,70.81
2023-04-08T16:11:04.196Z,71.24
2023-04-08T16:13:32.040Z,71.32
2023-04-08T16:16:02.305Z,71.63
2023-04-08T16:18:29.725Z,71.97
2023-04-08T16:20:56.614Z,72.07
2023-04-08T16:23:23.887Z,72.60
2023-04-08T16:25:52.154Z,73.12
2023-04-08T16:28:21.052Z,73.34
2023-04-08T16:30:48.533Z,73.56
2023-04-08T16:33:15.786Z,74.02
2023-04-08T16:35:43.380Z,75.22
2023-04-08T16:38:11.447Z,76.08
2023-04-08T16:40:40.857Z,76.93
2023-04-08T16:46:31.819Z,78.20
2023-04-08T16:51:44.521Z,79.10
2023-04-08T16:54:11.664Z,79.80
2023-04-08T16:56:44.890Z,80.49
2023-04-08T16:59:12.408Z,81.68
2023-04-08T17:01:40.852Z,82.60
2023-04-08T17:04:08.098Z,83.42
2023-04-08T17:06:38.636Z,83.75
2023-04-08T17:09:08.672Z,83.84
2023-04-08T17:11:37.624Z,84.10
2023-04-08T17:14:04.585Z,84.35
2023-04-08T17:16:41.313Z,84.49
2023-04-08T17:19:08.211Z,84.11
2023-04-08T17:21:35.008Z,83.63
2023-04-08T17:24:13.324Z,83.51
2023-04-08T17:26:42.117Z,82.98
2023-04-08T17:29:10.270Z,82.20
2023-04-08T17:31:40.928Z,81.83
2023-04-08T17:34:07.765Z,82.26
2023-04-08T17:36:34.921Z,82.26
2023-04-08T17:39:03.274Z,82.93
2023-04-08T17:41:39.852Z,83.51
2023-04-08T17:44:11.489Z,83.64
2023-04-08T17:46:39.172Z,84.09
2023-04-08T17:49:12.264Z,84.78
2023-04-08T17:51:43.792Z,85.11
2023-04-08T17:54:13.163Z,85.36
2023-04-08T17:56:46.649Z,85.12
2023-04-08T17:59:14.858Z,85.02
2023-04-08T18:01:47.272Z,85.60
2023-04-08T18:04:15.699Z,85.54
2023-04-08T18:06:42.984Z,85.43
2023-04-08T18:09:11.842Z,84.39
2023-04-08T18:11:40.935Z,83.73
2023-04-08T18:14:09.322Z,83.96
2023-04-08T18:16:44.000Z,84.19
2023-04-08T18:19:15.388Z,84.29
2023-04-08T18:21:43.263Z,84.45
2023-04-08T18:24:10.236Z,84.52
2023-04-08T18:26:38.929Z,84.53
2023-04-08T18:29:07.697Z,84.36
2023-04-08T18:31:37.636Z,84.48
2023-04-08T18:34:05.023Z,84.42
2023-04-08T18:36:33.192Z,84.35
2023-04-08T18:39:01.981Z,83.81
2023-04-08T18:41:29.230Z,83.30
2023-04-08T18:44:02.524Z,82.90
2023-04-08T18:46:30.980Z,82.31
2023-04-08T18:49:07.441Z,81.73
2023-04-08T18:51:35.457Z,81.18
2023-04-08T18:54:04.817Z,80.87
2023-04-08T18:56:34.988Z,81.16
2023-04-08T18:59:03.310Z,81.35
2023-04-08T19:01:32.969Z,81.66
2023-04-08T19:04:01.195Z,81.82
2023-04-08T19:06:34.838Z,81.70
2023-04-08T19:09:01.942Z,81.84
2023-04-08T19:11:31.052Z,81.67
2023-04-08T19:14:00.326Z,81.47
2023-04-08T19:16:33.151Z,81.45
2023-04-08T19:19:03.050Z,81.48
2023-04-08T19:21:32.344Z,81.30
2023-04-08T19:24:00.666Z,81.32
2023-04-08T19:26:28.541Z,81.51
2023-04-08T19:28:55.975Z,81.56
2023-04-08T19:31:25.350Z,81.55
2023-04-08T19:33:52.989Z,81.46
2023-04-08T19:36:25.618Z,81.29
2023-04-08T19:38:53.982Z,81.23
2023-04-08T19:41:22.535Z,81.34
2023-04-08T19:43:50.320Z,81.30
2023-04-08T19:46:18.261Z,81.15
2023-04-08T19:48:46.964Z,81.16
2023-04-08T19:51:19.673Z,81.90
2023-04-08T19:53:50.675Z,83.24
2023-04-08T19:56:18.602Z,83.98
2023-04-08T19:58:47.742Z,84.67
2023-04-08T20:01:18.346Z,85.38
2023-04-08T20:03:49.782Z,85.61
2023-04-08T20:06:17.062Z,85.59
2023-04-08T20:08:45.394Z,85.49
2023-04-08T20:11:13.142Z,85.45
2023-04-08T20:13:40.771Z,86.02
2023-04-08T20:16:10.544Z,86.42
2023-04-08T20:18:39.950Z,86.46
2023-04-08T20:21:07.836Z,86.20
2023-04-08T20:23:35.901Z,85.39
2023-04-08T20:26:03.199Z,84.79
2023-04-08T20:28:33.067Z,84.33
2023-04-08T20:31:01.390Z,84.20
2023-04-08T20:33:28.596Z,84.18
2023-04-08T20:35:56.847Z,84.22
2023-04-08T20:38:24.744Z,84.52
2023-04-08T20:40:54.030Z,84.42
2023-04-08T20:43:23.493Z,84.46
2023-04-08T20:45:50.585Z,84.88
2023-04-08T20:48:17.992Z,85.26
2023-04-08T20:50:48.546Z,85.49
2023-04-08T20:53:18.965Z,85.53
2023-04-08T20:55:51.982Z,85.67
2023-04-08T20:58:30.223Z,85.97
2023-04-08T21:00:58.684Z,86.07
2023-04-08T21:03:26.393Z,86.32
2023-04-08T21:05:55.065Z,86.56
2023-04-08T21:08:23.072Z,86.73
2023-04-08T21:10:53.069Z,86.91
2023-04-08T21:13:23.711Z,87.26
2023-04-08T21:15:50.731Z,87.54
2023-04-08T21:18:18.568Z,87.76
2023-04-08T21:20:45.409Z,87.92
2023-04-08T21:23:12.525Z,87.88
2023-04-08T21:25:40.345Z,88.25
2023-04-08T21:28:08.760Z,88.49
2023-04-08T21:30:36.466Z,88.47
2023-04-08T21:33:03.354Z,88.56
2023-04-08T21:35:30.199Z,88.88
2023-04-08T21:37:57.527Z,89.38
2023-04-08T21:40:24.295Z,89.94
2023-04-08T21:42:52.013Z,90.78
2023-04-08T21:45:19.711Z,91.17
2023-04-08T21:47:46.710Z,91.29
2023-04-08T21:50:15.166Z,91.67
2023-04-08T21:52:43.820Z,92.25
2023-04-08T21:55:10.885Z,92.44
2023-04-08T21:57:41.311Z,92.75
2023-04-08T22:00:12.727Z,93.17
2023-04-08T22:02:52.004Z,93.42
2023-04-08T22:05:19.106Z,93.36
2023-04-08T22:07:49.573Z,93.69
2023-04-08T22:10:17.030Z,94.22
2023-04-08T22:12:44.032Z,94.33
2023-04-08T22:15:26.577Z,94.44
2023-04-08T22:17:53.926Z,94.03
2023-04-08T22:20:20.937Z,93.62
2023-04-08T22:22:50.246Z,93.71
2023-04-08T22:25:17.273Z,94.00
2023-04-08T22:27:44.396Z,94.14
2023-04-08T22:30:13.143Z,93.77
2023-04-08T22:32:51.494Z,93.63
2023-04-08T22:35:18.642Z,94.00
2023-04-08T22:37:48.083Z,94.41
2023-04-08T22:40:15.035Z,94.42
2023-04-08T22:42:41.871Z,94.15
2023-04-08T22:45:09.022Z,93.78
2023-04-08T22:47:37.049Z,93.66
2023-04-08T22:50:05.874Z,93.58
2023-04-08T22:52:32.971Z,93.44
2023-04-08T22:54:59.914Z,93.24
2023-04-08T22:57:27.117Z,93.15
2023-04-08T22:59:54.034Z,92.99
2023-04-08T23:02:21.254Z,92.94
2023-04-08T23:04:52.490Z,92.76
2023-04-08T23:07:22.718Z,92.72
2023-04-08T23:09:50.246Z,92.91
2023-04-08T23:12:17.018Z,92.80
2023-04-08T23:14:46.110Z,92.99
2023-04-08T23:17:13.116Z,93.14
2023-04-08T23:19:41.862Z,93.15
2023-04-08T23:22:15.774Z,93.02
2023-04-08T23:24:43.426Z,92.89
2023-04-08T23:27:10.294Z,92.80
2023-04-08T23:29:37.320Z,92.86
2023-04-08T23:32:04.379Z,92.72
2023-04-08T23:34:35.916Z,92.61
2023-04-08T23:37:05.184Z,92.34
2023-04-08T23:39:33.102Z,92.22
2023-04-08T23:42:01.252Z,92.23
2023-04-08T23:44:28.376Z,92.15
2023-04-08T23:46:56.073Z,92.44
2023-04-08T23:49:25.543Z,92.76
2023-04-08T23:51:53.121Z,92.88
2023-04-08T23:54:20.146Z,92.78
2023-04-08T23:56:48.817Z,92.57
2023-04-08T23:59:16.161Z,92.37
